sensor_id;sensor_type;location;lat;lon;timestamp;P1;durP1;ratioP1;P2;durP2;ratioP2
70929;SDS011;58588;48.102;19.682;2023-02-22T00:00:18;35.30;;;16.48;;
70929;SDS011;58588;48.102;19.682;2023-02-22T00:03:28;36.10;;;16.63;;
70929;SDS011;58588;48.102;19.682;2023-02-22T00:06:33;30.03;;;14.13;;
70929;SDS011;58588;48.102;19.682;2023-02-22T00:09:35;26.42;;;11.88;;
70929;SDS011;58588;48.102;19.682;2023-02-22T00:12:37;24.83;;;11.25;;
70929;SDS011;58588;48.102;19.682;2023-02-22T00:15:41;25.85;;;11.77;;
70929;SDS011;58588;48.102;19.682;2023-02-22T00:18:43;23.10;;;10.27;;
70929;SDS011;58588;48.102;19.682;2023-02-22T00:21:48;23.57;;;10.27;;
70929;SDS011;58588;48.102;19.682;2023-02-22T00:24:53;25.88;;;10.52;;
70929;SDS011;58588;48.102;19.682;2023-02-22T00:27:55;22.08;;;10.02;;
70929;SDS011;58588;48.102;19.682;2023-02-22T00:30:59;20.98;;;9.68;;
70929;SDS011;58588;48.102;19.682;2023-02-22T00:34:01;22.53;;;9.57;;
70929;SDS011;58588;48.102;19.682;2023-02-22T00:37:03;26.50;;;11.03;;
70929;SDS011;58588;48.102;19.682;2023-02-22T00:40:05;22.92;;;10.25;;
70929;SDS011;58588;48.102;19.682;2023-02-22T00:43:08;27.42;;;10.98;;
70929;SDS011;58588;48.102;19.682;2023-02-22T00:46:13;29.70;;;12.10;;
70929;SDS011;58588;48.102;19.682;2023-02-22T00:49:15;23.77;;;10.73;;
70929;SDS011;58588;48.102;19.682;2023-02-22T00:52:17;41.17;;;15.27;;
70929;SDS011;58588;48.102;19.682;2023-02-22T00:55:20;34.47;;;14.68;;
70929;SDS011;58588;48.102;19.682;2023-02-22T00:58:24;37.58;;;15.23;;
70929;SDS011;58588;48.102;19.682;2023-02-22T01:01:27;39.22;;;17.42;;
70929;SDS011;58588;48.102;19.682;2023-02-22T01:04:30;40.07;;;19.03;;
70929;SDS011;58588;48.102;19.682;2023-02-22T01:07:32;38.07;;;15.40;;
70929;SDS011;58588;48.102;19.682;2023-02-22T01:10:35;38.65;;;16.08;;
70929;SDS011;58588;48.102;19.682;2023-02-22T01:13:38;30.30;;;13.32;;
70929;SDS011;58588;48.102;19.682;2023-02-22T01:16:42;33.40;;;14.07;;
70929;SDS011;58588;48.102;19.682;2023-02-22T01:19:44;29.07;;;12.57;;
70929;SDS011;58588;48.102;19.682;2023-02-22T01:22:47;27.83;;;11.33;;
70929;SDS011;58588;48.102;19.682;2023-02-22T01:25:52;32.50;;;12.75;;
70929;SDS011;58588;48.102;19.682;2023-02-22T01:28:54;27.08;;;10.38;;
70929;SDS011;58588;48.102;19.682;2023-02-22T01:31:57;20.25;;;8.52;;
70929;SDS011;58588;48.102;19.682;2023-02-22T01:35:00;25.27;;;9.13;;
70929;SDS011;58588;48.102;19.682;2023-02-22T01:38:04;24.13;;;8.70;;
70929;SDS011;58588;48.102;19.682;2023-02-22T01:41:06;19.77;;;7.82;;
70929;SDS011;58588;48.102;19.682;2023-02-22T01:44:18;20.38;;;7.95;;
70929;SDS011;58588;48.102;19.682;2023-02-22T01:47:28;21.85;;;7.93;;
70929;SDS011;58588;48.102;19.682;2023-02-22T01:50:30;21.33;;;8.37;;
70929;SDS011;58588;48.102;19.682;2023-02-22T01:53:42;20.73;;;7.65;;
70929;SDS011;58588;48.102;19.682;2023-02-22T01:56:49;20.27;;;7.60;;
70929;SDS011;58588;48.102;19.682;2023-02-22T01:59:59;18.58;;;7.60;;
70929;SDS011;58588;48.102;19.682;2023-02-22T02:03:12;21.27;;;7.55;;
70929;SDS011;58588;48.102;19.682;2023-02-22T02:06:18;26.67;;;10.93;;
70929;SDS011;58588;48.102;19.682;2023-02-22T02:09:23;33.05;;;11.77;;
70929;SDS011;58588;48.102;19.682;2023-02-22T02:12:32;27.08;;;10.65;;
70929;SDS011;58588;48.102;19.682;2023-02-22T02:15:36;22.83;;;8.85;;
70929;SDS011;58588;48.102;19.682;2023-02-22T02:18:40;26.98;;;10.32;;
70929;SDS011;58588;48.102;19.682;2023-02-22T02:21:52;28.23;;;11.20;;
70929;SDS011;58588;48.102;19.682;2023-02-22T02:25:10;26.23;;;10.98;;
70929;SDS011;58588;48.102;19.682;2023-02-22T02:28:43;24.95;;;9.73;;
70929;SDS011;58588;48.102;19.682;2023-02-22T02:32:08;24.90;;;10.25;;
70929;SDS011;58588;48.102;19.682;2023-02-22T02:35:49;22.52;;;9.32;;
70929;SDS011;58588;48.102;19.682;2023-02-22T02:38:58;25.77;;;9.33;;
70929;SDS011;58588;48.102;19.682;2023-02-22T02:42:08;23.55;;;8.38;;
70929;SDS011;58588;48.102;19.682;2023-02-22T02:45:16;29.73;;;11.38;;
70929;SDS011;58588;48.102;19.682;2023-02-22T02:48:26;23.17;;;10.32;;
70929;SDS011;58588;48.102;19.682;2023-02-22T02:51:29;19.23;;;8.73;;
70929;SDS011;58588;48.102;19.682;2023-02-22T02:54:36;17.93;;;7.23;;
70929;SDS011;58588;48.102;19.682;2023-02-22T02:57:39;18.90;;;8.13;;
70929;SDS011;58588;48.102;19.682;2023-02-22T03:00:41;18.90;;;7.85;;
70929;SDS011;58588;48.102;19.682;2023-02-22T03:03:56;17.63;;;7.25;;
70929;SDS011;58588;48.102;19.682;2023-02-22T03:07:13;19.08;;;8.07;;
70929;SDS011;58588;48.102;19.682;2023-02-22T03:10:36;17.87;;;7.57;;
70929;SDS011;58588;48.102;19.682;2023-02-22T03:13:49;15.82;;;7.45;;
70929;SDS011;58588;48.102;19.682;2023-02-22T03:16:57;20.10;;;7.90;;
70929;SDS011;58588;48.102;19.682;2023-02-22T03:20:07;20.80;;;7.70;;
70929;SDS011;58588;48.102;19.682;2023-02-22T03:23:14;17.25;;;8.05;;
70929;SDS011;58588;48.102;19.682;2023-02-22T03:26:26;18.03;;;7.23;;
70929;SDS011;58588;48.102;19.682;2023-02-22T03:29:36;18.05;;;7.32;;
70929;SDS011;58588;48.102;19.682;2023-02-22T03:32:43;15.88;;;6.13;;
70929;SDS011;58588;48.102;19.682;2023-02-22T03:35:53;16.85;;;6.60;;
70929;SDS011;58588;48.102;19.682;2023-02-22T03:38:59;18.20;;;6.50;;
70929;SDS011;58588;48.102;19.682;2023-02-22T03:42:04;18.23;;;6.57;;
70929;SDS011;58588;48.102;19.682;2023-02-22T03:45:09;17.50;;;7.72;;
70929;SDS011;58588;48.102;19.682;2023-02-22T03:48:15;15.20;;;6.22;;
70929;SDS011;58588;48.102;19.682;2023-02-22T03:51:25;16.52;;;6.25;;
70929;SDS011;58588;48.102;19.682;2023-02-22T03:54:28;14.50;;;6.03;;
70929;SDS011;58588;48.102;19.682;2023-02-22T03:57:31;13.57;;;5.67;;
70929;SDS011;58588;48.102;19.682;2023-02-22T04:00:39;17.45;;;6.93;;
70929;SDS011;58588;48.102;19.682;2023-02-22T04:03:43;16.58;;;6.75;;
70929;SDS011;58588;48.102;19.682;2023-02-22T04:06:47;17.00;;;6.25;;
70929;SDS011;58588;48.102;19.682;2023-02-22T04:09:49;18.63;;;6.38;;
70929;SDS011;58588;48.102;19.682;2023-02-22T04:12:51;13.53;;;6.00;;
70929;SDS011;58588;48.102;19.682;2023-02-22T04:15:53;17.92;;;6.57;;
70929;SDS011;58588;48.102;19.682;2023-02-22T04:18:55;18.73;;;6.18;;
70929;SDS011;58588;48.102;19.682;2023-02-22T04:21:58;16.75;;;6.43;;
70929;SDS011;58588;48.102;19.682;2023-02-22T04:25:00;17.15;;;7.20;;
70929;SDS011;58588;48.102;19.682;2023-02-22T04:28:02;21.53;;;8.07;;
70929;SDS011;58588;48.102;19.682;2023-02-22T04:31:05;20.77;;;7.70;;
70929;SDS011;58588;48.102;19.682;2023-02-22T04:34:07;19.05;;;7.13;;
70929;SDS011;58588;48.102;19.682;2023-02-22T04:37:10;16.23;;;6.85;;
70929;SDS011;58588;48.102;19.682;2023-02-22T04:40:12;18.77;;;7.35;;
70929;SDS011;58588;48.102;19.682;2023-02-22T04:43:17;20.90;;;7.03;;
70929;SDS011;58588;48.102;19.682;2023-02-22T04:46:19;19.63;;;7.43;;
70929;SDS011;58588;48.102;19.682;2023-02-22T04:49:21;18.10;;;6.88;;
70929;SDS011;58588;48.102;19.682;2023-02-22T04:52:24;20.42;;;7.35;;
70929;SDS011;58588;48.102;19.682;2023-02-22T04:55:27;21.38;;;7.72;;
70929;SDS011;58588;48.102;19.682;2023-02-22T04:58:29;17.50;;;6.90;;
70929;SDS011;58588;48.102;19.682;2023-02-22T05:01:31;34.40;;;14.15;;
70929;SDS011;58588;48.102;19.682;2023-02-22T05:04:36;19.92;;;8.18;;
70929;SDS011;58588;48.102;19.682;2023-02-22T05:07:40;16.45;;;7.05;;
70929;SDS011;58588;48.102;19.682;2023-02-22T05:10:42;21.23;;;6.95;;
70929;SDS011;58588;48.102;19.682;2023-02-22T05:13:44;22.90;;;9.83;;
70929;SDS011;58588;48.102;19.682;2023-02-22T05:16:47;21.15;;;9.07;;
70929;SDS011;58588;48.102;19.682;2023-02-22T05:19:49;22.58;;;10.07;;
70929;SDS011;58588;48.102;19.682;2023-02-22T05:22:53;21.40;;;9.63;;
70929;SDS011;58588;48.102;19.682;2023-02-22T05:25:55;18.13;;;8.02;;
70929;SDS011;58588;48.102;19.682;2023-02-22T05:28:57;15.43;;;6.67;;
70929;SDS011;58588;48.102;19.682;2023-02-22T05:31:59;15.02;;;6.00;;
70929;SDS011;58588;48.102;19.682;2023-02-22T05:35:02;15.32;;;6.22;;
70929;SDS011;58588;48.102;19.682;2023-02-22T05:38:09;18.60;;;7.07;;
70929;SDS011;58588;48.102;19.682;2023-02-22T05:41:14;17.33;;;6.68;;
70929;SDS011;58588;48.102;19.682;2023-02-22T05:44:16;14.17;;;5.80;;
70929;SDS011;58588;48.102;19.682;2023-02-22T05:47:18;16.02;;;6.68;;
70929;SDS011;58588;48.102;19.682;2023-02-22T05:50:20;17.58;;;7.45;;
70929;SDS011;58588;48.102;19.682;2023-02-22T05:53:25;26.00;;;9.82;;
70929;SDS011;58588;48.102;19.682;2023-02-22T05:56:27;31.50;;;12.75;;
70929;SDS011;58588;48.102;19.682;2023-02-22T05:59:30;32.80;;;13.53;;
70929;SDS011;58588;48.102;19.682;2023-02-22T06:02:32;29.85;;;12.90;;
70929;SDS011;58588;48.102;19.682;2023-02-22T06:05:34;27.33;;;11.20;;
70929;SDS011;58588;48.102;19.682;2023-02-22T06:08:38;34.83;;;13.27;;
70929;SDS011;58588;48.102;19.682;2023-02-22T06:11:40;33.60;;;14.07;;
70929;SDS011;58588;48.102;19.682;2023-02-22T06:14:42;34.90;;;14.27;;
70929;SDS011;58588;48.102;19.682;2023-02-22T06:17:45;30.13;;;12.40;;
70929;SDS011;58588;48.102;19.682;2023-02-22T06:20:50;29.05;;;10.63;;
70929;SDS011;58588;48.102;19.682;2023-02-22T06:23:54;33.25;;;13.73;;
70929;SDS011;58588;48.102;19.682;2023-02-22T06:26:57;59.95;;;26.05;;
70929;SDS011;58588;48.102;19.682;2023-02-22T06:30:00;47.47;;;22.07;;
70929;SDS011;58588;48.102;19.682;2023-02-22T06:33:02;35.00;;;17.20;;
70929;SDS011;58588;48.102;19.682;2023-02-22T06:36:05;35.50;;;16.55;;
70929;SDS011;58588;48.102;19.682;2023-02-22T06:39:09;45.22;;;19.95;;
70929;SDS011;58588;48.102;19.682;2023-02-22T06:42:11;41.97;;;17.60;;
70929;SDS011;58588;48.102;19.682;2023-02-22T06:45:14;41.93;;;16.70;;
70929;SDS011;58588;48.102;19.682;2023-02-22T06:48:18;37.05;;;15.70;;
70929;SDS011;58588;48.102;19.682;2023-02-22T06:51:20;45.60;;;18.17;;
70929;SDS011;58588;48.102;19.682;2023-02-22T06:54:23;57.22;;;23.42;;
70929;SDS011;58588;48.102;19.682;2023-02-22T06:57:26;61.78;;;26.35;;
70929;SDS011;58588;48.102;19.682;2023-02-22T07:00:28;70.27;;;29.97;;
70929;SDS011;58588;48.102;19.682;2023-02-22T07:03:31;70.60;;;30.83;;
70929;SDS011;58588;48.102;19.682;2023-02-22T07:06:33;64.95;;;29.88;;
70929;SDS011;58588;48.102;19.682;2023-02-22T07:09:37;68.95;;;28.65;;
70929;SDS011;58588;48.102;19.682;2023-02-22T07:12:39;57.85;;;27.38;;
70929;SDS011;58588;48.102;19.682;2023-02-22T07:15:41;55.10;;;26.77;;
70929;SDS011;58588;48.102;19.682;2023-02-22T07:18:44;62.45;;;29.02;;
70929;SDS011;58588;48.102;19.682;2023-02-22T07:21:46;63.40;;;29.45;;
70929;SDS011;58588;48.102;19.682;2023-02-22T07:24:51;50.97;;;25.73;;
70929;SDS011;58588;48.102;19.682;2023-02-22T07:27:54;54.65;;;23.45;;
70929;SDS011;58588;48.102;19.682;2023-02-22T07:30:56;63.97;;;29.07;;
70929;SDS011;58588;48.102;19.682;2023-02-22T07:34:00;94.50;;;42.07;;
70929;SDS011;58588;48.102;19.682;2023-02-22T07:37:02;58.90;;;29.73;;
70929;SDS011;58588;48.102;19.682;2023-02-22T07:40:06;48.03;;;21.80;;
70929;SDS011;58588;48.102;19.682;2023-02-22T07:43:12;54.08;;;26.65;;
70929;SDS011;58588;48.102;19.682;2023-02-22T07:46:15;52.17;;;23.73;;
70929;SDS011;58588;48.102;19.682;2023-02-22T07:49:17;44.03;;;22.23;;
70929;SDS011;58588;48.102;19.682;2023-02-22T07:52:20;37.08;;;19.88;;
70929;SDS011;58588;48.102;19.682;2023-02-22T07:55:24;36.88;;;19.27;;
70929;SDS011;58588;48.102;19.682;2023-02-22T07:58:28;31.08;;;14.73;;
70929;SDS011;58588;48.102;19.682;2023-02-22T08:01:31;24.87;;;12.67;;
70929;SDS011;58588;48.102;19.682;2023-02-22T08:04:33;21.10;;;10.27;;
70929;SDS011;58588;48.102;19.682;2023-02-22T08:07:40;16.55;;;7.75;;
70929;SDS011;58588;48.102;19.682;2023-02-22T08:10:44;15.35;;;6.68;;
70929;SDS011;58588;48.102;19.682;2023-02-22T08:13:46;10.93;;;5.07;;
70929;SDS011;58588;48.102;19.682;2023-02-22T08:16:48;13.67;;;4.77;;
70929;SDS011;58588;48.102;19.682;2023-02-22T08:19:50;10.93;;;3.63;;
70929;SDS011;58588;48.102;19.682;2023-02-22T08:22:52;12.43;;;3.80;;
70929;SDS011;58588;48.102;19.682;2023-02-22T08:25:56;8.25;;;3.28;;
70929;SDS011;58588;48.102;19.682;2023-02-22T08:29:04;9.93;;;3.50;;
70929;SDS011;58588;48.102;19.682;2023-02-22T08:32:06;13.40;;;4.33;;
70929;SDS011;58588;48.102;19.682;2023-02-22T08:35:08;10.67;;;3.97;;
70929;SDS011;58588;48.102;19.682;2023-02-22T08:38:14;12.73;;;3.80;;
70929;SDS011;58588;48.102;19.682;2023-02-22T08:41:19;12.40;;;4.30;;
70929;SDS011;58588;48.102;19.682;2023-02-22T08:44:21;9.27;;;3.60;;
70929;SDS011;58588;48.102;19.682;2023-02-22T08:47:24;11.57;;;4.03;;
70929;SDS011;58588;48.102;19.682;2023-02-22T08:50:26;11.77;;;3.87;;
70929;SDS011;58588;48.102;19.682;2023-02-22T08:53:30;10.77;;;3.65;;
70929;SDS011;58588;48.102;19.682;2023-02-22T08:56:33;11.90;;;3.30;;
70929;SDS011;58588;48.102;19.682;2023-02-22T08:59:35;9.57;;;3.13;;
70929;SDS011;58588;48.102;19.682;2023-02-22T09:02:37;10.43;;;3.67;;
70929;SDS011;58588;48.102;19.682;2023-02-22T09:05:40;12.43;;;3.87;;
70929;SDS011;58588;48.102;19.682;2023-02-22T09:08:43;12.50;;;3.72;;
70929;SDS011;58588;48.102;19.682;2023-02-22T09:11:46;8.45;;;3.08;;
70929;SDS011;58588;48.102;19.682;2023-02-22T09:14:48;9.55;;;2.88;;
70929;SDS011;58588;48.102;19.682;2023-02-22T09:17:51;11.50;;;3.47;;
70929;SDS011;58588;48.102;19.682;2023-02-22T09:20:53;9.70;;;3.27;;
70929;SDS011;58588;48.102;19.682;2023-02-22T09:23:55;9.60;;;3.20;;
70929;SDS011;58588;48.102;19.682;2023-02-22T09:26:59;7.78;;;2.38;;
70929;SDS011;58588;48.102;19.682;2023-02-22T09:30:03;8.77;;;2.90;;
70929;SDS011;58588;48.102;19.682;2023-02-22T09:33:06;9.50;;;2.60;;
70929;SDS011;58588;48.102;19.682;2023-02-22T09:36:10;10.50;;;2.80;;
70929;SDS011;58588;48.102;19.682;2023-02-22T09:39:12;9.80;;;2.80;;
70929;SDS011;58588;48.102;19.682;2023-02-22T09:42:17;9.00;;;2.47;;
70929;SDS011;58588;48.102;19.682;2023-02-22T09:45:31;10.10;;;3.50;;
70929;SDS011;58588;48.102;19.682;2023-02-22T09:48:44;8.47;;;2.90;;
70929;SDS011;58588;48.102;19.682;2023-02-22T09:51:57;7.67;;;2.77;;
70929;SDS011;58588;48.102;19.682;2023-02-22T09:55:06;10.18;;;3.25;;
70929;SDS011;58588;48.102;19.682;2023-02-22T09:58:12;11.02;;;3.05;;
70929;SDS011;58588;48.102;19.682;2023-02-22T10:01:22;11.68;;;3.30;;
70929;SDS011;58588;48.102;19.682;2023-02-22T10:04:30;9.57;;;2.97;;
70929;SDS011;58588;48.102;19.682;2023-02-22T10:07:43;8.43;;;2.90;;
70929;SDS011;58588;48.102;19.682;2023-02-22T10:10:53;8.95;;;3.33;;
70929;SDS011;58588;48.102;19.682;2023-02-22T10:14:08;11.85;;;3.22;;
70929;SDS011;58588;48.102;19.682;2023-02-22T10:17:33;12.82;;;3.70;;
70929;SDS011;58588;48.102;19.682;2023-02-22T10:20:43;8.63;;;3.07;;
70929;SDS011;58588;48.102;19.682;2023-02-22T10:23:53;9.40;;;2.97;;
70929;SDS011;58588;48.102;19.682;2023-02-22T10:27:03;10.23;;;2.80;;
70929;SDS011;58588;48.102;19.682;2023-02-22T10:30:13;11.63;;;3.30;;
70929;SDS011;58588;48.102;19.682;2023-02-22T10:33:21;10.65;;;2.90;;
70929;SDS011;58588;48.102;19.682;2023-02-22T10:36:26;10.07;;;3.03;;
70929;SDS011;58588;48.102;19.682;2023-02-22T10:39:30;11.27;;;3.10;;
70929;SDS011;58588;48.102;19.682;2023-02-22T10:42:33;8.95;;;2.83;;
70929;SDS011;58588;48.102;19.682;2023-02-22T10:45:37;9.25;;;3.00;;
70929;SDS011;58588;48.102;19.682;2023-02-22T10:48:39;8.73;;;3.00;;
70929;SDS011;58588;48.102;19.682;2023-02-22T10:51:45;8.13;;;2.93;;
70929;SDS011;58588;48.102;19.682;2023-02-22T10:54:49;9.57;;;2.67;;
70929;SDS011;58588;48.102;19.682;2023-02-22T10:57:58;9.13;;;2.95;;
70929;SDS011;58588;48.102;19.682;2023-02-22T11:01:15;7.53;;;2.47;;
70929;SDS011;58588;48.102;19.682;2023-02-22T11:04:19;11.32;;;2.88;;
70929;SDS011;58588;48.102;19.682;2023-02-22T11:07:23;8.53;;;3.07;;
70929;SDS011;58588;48.102;19.682;2023-02-22T11:10:29;9.20;;;3.27;;
70929;SDS011;58588;48.102;19.682;2023-02-22T11:13:40;11.70;;;3.00;;
70929;SDS011;58588;48.102;19.682;2023-02-22T11:16:45;10.18;;;3.20;;
70929;SDS011;58588;48.102;19.682;2023-02-22T11:19:51;23.27;;;12.15;;
70929;SDS011;58588;48.102;19.682;2023-02-22T11:22:54;11.93;;;3.10;;
70929;SDS011;58588;48.102;19.682;2023-02-22T11:26:01;12.77;;;3.50;;
70929;SDS011;58588;48.102;19.682;2023-02-22T11:29:11;10.13;;;3.85;;
70929;SDS011;58588;48.102;19.682;2023-02-22T11:32:20;9.32;;;3.42;;
70929;SDS011;58588;48.102;19.682;2023-02-22T11:35:35;9.15;;;3.20;;
70929;SDS011;58588;48.102;19.682;2023-02-22T11:38:40;7.93;;;2.47;;
70929;SDS011;58588;48.102;19.682;2023-02-22T11:41:55;9.93;;;4.77;;
70929;SDS011;58588;48.102;19.682;2023-02-22T11:45:07;9.07;;;3.30;;
70929;SDS011;58588;48.102;19.682;2023-02-22T11:48:17;8.63;;;3.38;;
70929;SDS011;58588;48.102;19.682;2023-02-22T11:51:27;18.35;;;10.00;;
70929;SDS011;58588;48.102;19.682;2023-02-22T11:54:41;14.27;;;5.73;;
70929;SDS011;58588;48.102;19.682;2023-02-22T11:57:54;9.43;;;3.00;;
70929;SDS011;58588;48.102;19.682;2023-02-22T12:01:08;8.65;;;2.78;;
70929;SDS011;58588;48.102;19.682;2023-02-22T12:04:34;10.15;;;3.13;;
70929;SDS011;58588;48.102;19.682;2023-02-22T12:07:50;10.82;;;2.90;;
70929;SDS011;58588;48.102;19.682;2023-02-22T12:11:09;10.70;;;3.00;;
70929;SDS011;58588;48.102;19.682;2023-02-22T12:14:20;7.97;;;2.80;;
70929;SDS011;58588;48.102;19.682;2023-02-22T12:17:32;7.65;;;2.55;;
70929;SDS011;58588;48.102;19.682;2023-02-22T12:20:46;10.02;;;2.97;;
70929;SDS011;58588;48.102;19.682;2023-02-22T12:23:55;9.07;;;2.97;;
70929;SDS011;58588;48.102;19.682;2023-02-22T12:27:03;8.93;;;2.70;;
70929;SDS011;58588;48.102;19.682;2023-02-22T12:30:11;8.63;;;2.97;;
70929;SDS011;58588;48.102;19.682;2023-02-22T12:33:20;12.43;;;3.10;;
70929;SDS011;58588;48.102;19.682;2023-02-22T12:36:32;10.75;;;2.75;;
70929;SDS011;58588;48.102;19.682;2023-02-22T12:39:43;9.93;;;2.92;;
70929;SDS011;58588;48.102;19.682;2023-02-22T12:42:55;10.47;;;2.87;;
70929;SDS011;58588;48.102;19.682;2023-02-22T12:46:05;11.90;;;3.23;;
70929;SDS011;58588;48.102;19.682;2023-02-22T12:49:13;11.38;;;3.25;;
70929;SDS011;58588;48.102;19.682;2023-02-22T12:52:24;10.48;;;3.38;;
70929;SDS011;58588;48.102;19.682;2023-02-22T12:55:40;14.65;;;3.50;;
70929;SDS011;58588;48.102;19.682;2023-02-22T12:58:48;9.83;;;3.70;;
70929;SDS011;58588;48.102;19.682;2023-02-22T13:01:57;9.63;;;3.17;;
70929;SDS011;58588;48.102;19.682;2023-02-22T13:05:03;8.25;;;3.30;;
70929;SDS011;58588;48.102;19.682;2023-02-22T13:08:12;11.93;;;3.50;;
70929;SDS011;58588;48.102;19.682;2023-02-22T13:11:23;9.65;;;3.63;;
70929;SDS011;58588;48.102;19.682;2023-02-22T13:14:40;14.23;;;3.50;;
70929;SDS011;58588;48.102;19.682;2023-02-22T13:17:55;8.17;;;2.70;;
70929;SDS011;58588;48.102;19.682;2023-02-22T13:21:05;13.43;;;3.85;;
70929;SDS011;58588;48.102;19.682;2023-02-22T13:24:20;10.25;;;3.40;;
70929;SDS011;58588;48.102;19.682;2023-02-22T13:27:27;10.50;;;3.45;;
70929;SDS011;58588;48.102;19.682;2023-02-22T13:30:36;11.03;;;3.37;;
70929;SDS011;58588;48.102;19.682;2023-02-22T13:33:45;11.90;;;3.43;;
70929;SDS011;58588;48.102;19.682;2023-02-22T13:37:07;14.23;;;3.25;;
70929;SDS011;58588;48.102;19.682;2023-02-22T13:44:13;9.05;;;2.97;;
70929;SDS011;58588;48.102;19.682;2023-02-22T13:47:33;9.93;;;3.17;;
70929;SDS011;58588;48.102;19.682;2023-02-22T13:54:14;9.93;;;2.85;;
70929;SDS011;58588;48.102;19.682;2023-02-22T13:57:21;11.90;;;3.13;;
70929;SDS011;58588;48.102;19.682;2023-02-22T14:00:39;14.68;;;4.97;;
70929;SDS011;58588;48.102;19.682;2023-02-22T14:03:45;9.40;;;2.83;;
70929;SDS011;58588;48.102;19.682;2023-02-22T14:06:48;10.43;;;3.03;;
70929;SDS011;58588;48.102;19.682;2023-02-22T14:09:50;9.85;;;4.22;;
70929;SDS011;58588;48.102;19.682;2023-02-22T14:12:55;11.93;;;3.50;;
70929;SDS011;58588;48.102;19.682;2023-02-22T14:16:20;11.10;;;3.17;;
70929;SDS011;58588;48.102;19.682;2023-02-22T14:19:24;8.63;;;2.50;;
70929;SDS011;58588;48.102;19.682;2023-02-22T14:22:27;10.70;;;2.80;;
70929;SDS011;58588;48.102;19.682;2023-02-22T14:25:35;12.95;;;3.28;;
70929;SDS011;58588;48.102;19.682;2023-02-22T14:28:41;10.20;;;2.63;;
70929;SDS011;58588;48.102;19.682;2023-02-22T14:31:57;10.30;;;3.25;;
70929;SDS011;58588;48.102;19.682;2023-02-22T14:35:03;16.30;;;4.00;;
70929;SDS011;58588;48.102;19.682;2023-02-22T14:38:12;11.53;;;3.30;;
70929;SDS011;58588;48.102;19.682;2023-02-22T14:41:18;9.63;;;2.88;;
70929;SDS011;58588;48.102;19.682;2023-02-22T14:44:26;12.80;;;2.90;;
70929;SDS011;58588;48.102;19.682;2023-02-22T14:47:36;12.10;;;2.97;;
70929;SDS011;58588;48.102;19.682;2023-02-22T14:50:44;11.33;;;3.10;;
70929;SDS011;58588;48.102;19.682;2023-02-22T14:53:51;11.63;;;3.87;;
70929;SDS011;58588;48.102;19.682;2023-02-22T14:57:00;9.93;;;4.05;;
70929;SDS011;58588;48.102;19.682;2023-02-22T15:00:16;9.85;;;3.08;;
70929;SDS011;58588;48.102;19.682;2023-02-22T15:03:33;9.60;;;3.10;;
70929;SDS011;58588;48.102;19.682;2023-02-22T15:06:36;13.70;;;3.13;;
70929;SDS011;58588;48.102;19.682;2023-02-22T15:09:38;8.47;;;2.60;;
70929;SDS011;58588;48.102;19.682;2023-02-22T15:12:40;10.68;;;2.75;;
70929;SDS011;58588;48.102;19.682;2023-02-22T15:15:43;11.02;;;3.08;;
70929;SDS011;58588;48.102;19.682;2023-02-22T15:18:49;12.40;;;3.45;;
70929;SDS011;58588;48.102;19.682;2023-02-22T15:21:54;10.17;;;3.30;;
70929;SDS011;58588;48.102;19.682;2023-02-22T15:24:59;11.77;;;3.30;;
70929;SDS011;58588;48.102;19.682;2023-02-22T15:28:03;9.05;;;3.17;;
70929;SDS011;58588;48.102;19.682;2023-02-22T15:31:15;11.32;;;3.50;;
70929;SDS011;58588;48.102;19.682;2023-02-22T15:34:26;13.18;;;3.80;;
70929;SDS011;58588;48.102;19.682;2023-02-22T15:37:29;13.33;;;3.67;;
70929;SDS011;58588;48.102;19.682;2023-02-22T15:40:32;12.17;;;3.10;;
70929;SDS011;58588;48.102;19.682;2023-02-22T15:43:35;12.00;;;3.30;;
70929;SDS011;58588;48.102;19.682;2023-02-22T15:46:37;10.60;;;3.25;;
70929;SDS011;58588;48.102;19.682;2023-02-22T15:49:41;11.60;;;3.63;;
70929;SDS011;58588;48.102;19.682;2023-02-22T15:52:46;9.20;;;2.90;;
70929;SDS011;58588;48.102;19.682;2023-02-22T15:55:53;8.07;;;2.77;;
70929;SDS011;58588;48.102;19.682;2023-02-22T15:58:58;10.48;;;2.92;;
70929;SDS011;58588;48.102;19.682;2023-02-22T16:02:02;110.47;;;49.47;;
70929;SDS011;58588;48.102;19.682;2023-02-22T16:05:07;25.02;;;12.40;;
70929;SDS011;58588;48.102;19.682;2023-02-22T16:08:13;54.73;;;22.27;;
70929;SDS011;58588;48.102;19.682;2023-02-22T16:11:20;67.10;;;33.20;;
70929;SDS011;58588;48.102;19.682;2023-02-22T16:14:29;62.65;;;33.85;;
70929;SDS011;58588;48.102;19.682;2023-02-22T16:17:41;39.40;;;23.85;;
70929;SDS011;58588;48.102;19.682;2023-02-22T16:20:45;36.90;;;21.63;;
70929;SDS011;58588;48.102;19.682;2023-02-22T16:23:58;26.13;;;14.17;;
70929;SDS011;58588;48.102;19.682;2023-02-22T16:27:02;17.37;;;9.30;;
70929;SDS011;58588;48.102;19.682;2023-02-22T16:30:16;19.10;;;9.55;;
70929;SDS011;58588;48.102;19.682;2023-02-22T16:33:26;17.45;;;6.55;;
70929;SDS011;58588;48.102;19.682;2023-02-22T16:36:38;14.90;;;5.63;;
70929;SDS011;58588;48.102;19.682;2023-02-22T16:39:41;13.63;;;4.97;;
70929;SDS011;58588;48.102;19.682;2023-02-22T16:42:48;16.07;;;9.17;;
70929;SDS011;58588;48.102;19.682;2023-02-22T16:45:51;11.68;;;4.70;;
70929;SDS011;58588;48.102;19.682;2023-02-22T16:48:53;13.43;;;4.40;;
70929;SDS011;58588;48.102;19.682;2023-02-22T16:51:57;15.23;;;4.85;;
70929;SDS011;58588;48.102;19.682;2023-02-22T16:55:00;17.73;;;6.10;;
70929;SDS011;58588;48.102;19.682;2023-02-22T16:58:02;20.47;;;8.27;;
70929;SDS011;58588;48.102;19.682;2023-02-22T17:01:05;27.88;;;10.80;;
70929;SDS011;58588;48.102;19.682;2023-02-22T17:04:09;30.60;;;9.90;;
70929;SDS011;58588;48.102;19.682;2023-02-22T17:07:17;36.78;;;11.70;;
70929;SDS011;58588;48.102;19.682;2023-02-22T17:10:22;42.67;;;13.93;;
70929;SDS011;58588;48.102;19.682;2023-02-22T17:13:26;18.67;;;6.83;;
70929;SDS011;58588;48.102;19.682;2023-02-22T17:16:39;26.92;;;9.38;;
70929;SDS011;58588;48.102;19.682;2023-02-22T17:19:41;19.38;;;7.20;;
70929;SDS011;58588;48.102;19.682;2023-02-22T17:22:45;14.05;;;4.53;;
70929;SDS011;58588;48.102;19.682;2023-02-22T17:25:48;38.53;;;14.17;;
70929;SDS011;58588;48.102;19.682;2023-02-22T17:28:52;32.37;;;13.27;;
70929;SDS011;58588;48.102;19.682;2023-02-22T17:31:54;39.47;;;17.38;;
70929;SDS011;58588;48.102;19.682;2023-02-22T17:34:56;67.30;;;26.30;;
70929;SDS011;58588;48.102;19.682;2023-02-22T17:38:03;64.05;;;24.95;;
70929;SDS011;58588;48.102;19.682;2023-02-22T17:41:05;53.77;;;22.47;;
70929;SDS011;58588;48.102;19.682;2023-02-22T17:44:08;46.53;;;19.30;;
70929;SDS011;58588;48.102;19.682;2023-02-22T17:47:10;46.85;;;19.27;;
70929;SDS011;58588;48.102;19.682;2023-02-22T17:50:12;47.88;;;20.17;;
70929;SDS011;58588;48.102;19.682;2023-02-22T17:53:16;49.63;;;20.80;;
70929;SDS011;58588;48.102;19.682;2023-02-22T17:56:20;56.13;;;23.73;;
70929;SDS011;58588;48.102;19.682;2023-02-22T17:59:22;56.13;;;22.93;;
70929;SDS011;58588;48.102;19.682;2023-02-22T18:02:24;61.35;;;28.83;;
70929;SDS011;58588;48.102;19.682;2023-02-22T18:05:27;57.88;;;24.75;;
70929;SDS011;58588;48.102;19.682;2023-02-22T18:08:31;50.30;;;22.10;;
70929;SDS011;58588;48.102;19.682;2023-02-22T18:11:33;51.80;;;22.53;;